createdAt,value
2019-06-10T00:01:35.794Z,100613.69
2019-06-10T00:04:12.466Z,100611.96
2019-06-10T00:06:45.967Z,100606.17
2019-06-10T00:09:20.908Z,100607.16
2019-06-10T00:11:53.934Z,100602.23
2019-06-10T00:14:28.033Z,100600.44
2019-06-10T00:17:01.999Z,100597.31
2019-06-10T00:19:36.917Z,100604.67
2019-06-10T00:22:11.640Z,100601.70
2019-06-10T00:24:45.987Z,100602.48
2019-06-10T00:27:21.466Z,100594.97
2019-06-10T00:29:55.259Z,100587.45
2019-06-10T00:32:28.695Z,100585.27
2019-06-10T00:35:04.630Z,100577.76
2019-06-10T00:37:39.021Z,100575.75
2019-06-10T00:40:14.270Z,100572.59
2019-06-10T00:42:50.612Z,100563.67
2019-06-10T00:45:24.397Z,100563.28
2019-06-10T00:48:07.658Z,100561.48
2019-06-10T00:50:33.347Z,100558.47
2019-06-10T00:53:07.543Z,100554.84
2019-06-10T00:55:42.009Z,100562.34
2019-06-10T00:58:16.149Z,100562.27
2019-06-10T01:00:51.461Z,100564.92
2019-06-10T01:03:24.879Z,100567.98
2019-06-10T01:06:01.126Z,100565.79
2019-06-10T01:08:34.873Z,100565.72
2019-06-10T01:11:11.651Z,100567.36
2019-06-10T01:13:43.699Z,100569.86
2019-06-10T01:16:17.724Z,100570.22
2019-06-10T01:18:53.417Z,100561.69
2019-06-10T01:21:26.860Z,100561.22
2019-06-10T01:24:01.256Z,100557.31
2019-06-10T01:26:35.191Z,100559.42
2019-06-10T01:29:10.288Z,100550.34
2019-06-10T01:31:44.839Z,100553.40
2019-06-10T01:34:18.774Z,100547.14
2019-06-10T01:36:52.793Z,100541.81
2019-06-10T01:39:26.039Z,100538.77
2019-06-10T01:42:00.654Z,100544.48
2019-06-10T01:44:34.687Z,100541.81
2019-06-10T01:47:08.709Z,100532.50
2019-06-10T01:49:42.831Z,100530.31
2019-06-10T01:52:18.219Z,100528.67
2019-06-10T01:54:52.419Z,100530.39
2019-06-10T01:57:26.350Z,100527.19
2019-06-10T02:00:00.960Z,100524.91
2019-06-10T02:02:36.342Z,100512.36
2019-06-10T02:05:13.269Z,100516.34
2019-06-10T02:07:47.515Z,100506.48
2019-06-10T02:10:22.991Z,100501.56
2019-06-10T02:12:57.217Z,100509.54
2019-06-10T02:15:31.553Z,100507.27
2019-06-10T02:18:05.854Z,100498.34
2019-06-10T02:20:41.252Z,100494.74
2019-06-10T02:23:16.017Z,100492.31
2019-06-10T02:25:51.302Z,100489.09
2019-06-10T02:28:25.311Z,100477.34
2019-06-10T02:31:03.359Z,100476.80
2019-06-10T02:33:36.655Z,100469.20
2019-06-10T02:36:15.946Z,100468.61
2019-06-10T02:38:46.674Z,100463.68
2019-06-10T02:41:29.613Z,100457.03
2019-06-10T02:43:56.387Z,100451.70
2019-06-10T02:46:34.895Z,100452.48
2019-06-10T02:49:23.235Z,100456.86
2019-06-10T02:51:43.635Z,100456.78
2019-06-10T02:54:20.330Z,100457.47
2019-06-10T02:56:54.060Z,100453.87
2019-06-10T02:59:31.644Z,100449.67
2019-06-10T03:02:04.253Z,100444.73
2019-06-10T03:04:38.295Z,100438.08
2019-06-10T03:07:13.766Z,100434.47
2019-06-10T03:09:46.435Z,100431.81
2019-06-10T03:12:23.015Z,100427.44
2019-06-10T03:14:56.246Z,100432.20
2019-06-10T03:17:31.784Z,100434.70
2019-06-10T03:20:05.418Z,100435.27
2019-06-10T03:22:39.430Z,100441.14
2019-06-10T03:25:13.248Z,100440.19
2019-06-10T03:27:47.332Z,100452.16
2019-06-10T03:30:30.760Z,100454.61
2019-06-10T03:32:55.727Z,100444.16
2019-06-10T03:35:29.996Z,100441.50
2019-06-10T03:38:04.327Z,100433.31
2019-06-10T03:40:38.259Z,100436.20
2019-06-10T03:43:12.296Z,100437.16
2019-06-10T03:45:46.042Z,100431.11
2019-06-10T03:48:21.738Z,100436.53
2019-06-10T03:50:55.621Z,100435.88
2019-06-10T03:53:29.714Z,100424.76
2019-06-10T03:56:03.873Z,100428.92
2019-06-10T03:58:37.181Z,100431.79
2019-06-10T04:01:12.327Z,100431.31
2019-06-10T04:03:46.578Z,100425.22
2019-06-10T04:06:19.662Z,100430.37
2019-06-10T04:08:53.601Z,100424.76
2019-06-10T04:11:28.774Z,100429.83
2019-06-10T04:14:03.369Z,100429.63
2019-06-10T04:16:36.781Z,100438.30
2019-06-10T04:19:12.926Z,100446.89
2019-06-10T04:21:46.304Z,100440.61
2019-06-10T04:24:22.704Z,100434.98
2019-06-10T04:26:56.233Z,100440.14
2019-06-10T04:29:32.918Z,100431.20
2019-06-10T04:32:07.110Z,100425.70
2019-06-10T04:34:42.737Z,100416.58
2019-06-10T04:37:15.911Z,100413.84
2019-06-10T04:39:49.947Z,100417.78
2019-06-10T04:42:24.615Z,100413.02
2019-06-10T04:44:58.712Z,100413.00
2019-06-10T04:47:33.250Z,100413.17
2019-06-10T04:50:20.816Z,100403.18
2019-06-10T04:52:43.578Z,100398.86
2019-06-10T04:55:16.794Z,100391.81
2019-06-10T04:57:52.116Z,100383.59
2019-06-10T05:00:27.649Z,100378.95
2019-06-10T05:03:02.896Z,100380.13
2019-06-10T05:05:36.970Z,100389.70
2019-06-10T05:08:13.155Z,100398.92
2019-06-10T05:10:46.877Z,100387.41
2019-06-10T05:13:21.841Z,100382.27
2019-06-10T05:15:55.250Z,100381.33
2019-06-10T05:18:30.225Z,100378.12
2019-06-10T05:21:04.344Z,100377.31
2019-06-10T05:23:38.287Z,100374.78
2019-06-10T05:26:13.286Z,100372.23
2019-06-10T05:28:48.197Z,100372.16
2019-06-10T05:31:25.223Z,100365.02
2019-06-10T05:33:57.961Z,100366.49
2019-06-10T05:36:34.633Z,100360.36
2019-06-10T05:39:08.321Z,100360.47
2019-06-10T05:41:43.354Z,100354.67
2019-06-10T05:44:17.489Z,100356.96
2019-06-10T05:46:52.834Z,100355.80
2019-06-10T05:49:27.790Z,100354.45
2019-06-10T05:52:02.952Z,100356.41
2019-06-10T05:54:36.962Z,100349.41
2019-06-10T05:57:12.033Z,100341.17
2019-06-10T05:59:46.118Z,100338.63
2019-06-10T06:02:22.116Z,100338.25
2019-06-10T06:04:55.777Z,100344.14
2019-06-10T06:07:29.215Z,100346.61
2019-06-10T06:10:03.823Z,100342.51
2019-06-10T06:12:38.085Z,100340.72
2019-06-10T06:15:13.002Z,100344.67
2019-06-10T06:17:47.175Z,100344.80
2019-06-10T06:20:20.390Z,100342.50
2019-06-10T06:22:54.289Z,100336.55
2019-06-10T06:25:30.463Z,100335.06
2019-06-10T06:28:03.928Z,100339.91
2019-06-10T06:30:37.643Z,100342.05
2019-06-10T06:33:13.576Z,100334.00
2019-06-10T06:35:47.493Z,100334.91
2019-06-10T06:38:22.424Z,100333.82
2019-06-10T06:40:56.701Z,100339.00
2019-06-10T06:43:32.840Z,100342.64
2019-06-10T06:46:06.296Z,100343.98
2019-06-10T06:48:42.962Z,100336.02
2019-06-10T06:51:15.021Z,100331.06
2019-06-10T06:53:52.127Z,100321.98
2019-06-10T06:56:23.201Z,100316.53
2019-06-10T06:58:57.418Z,100310.38
2019-06-10T07:01:34.569Z,100309.58
2019-06-10T07:04:07.186Z,100310.95
2019-06-10T07:06:43.248Z,100310.55
2019-06-10T07:09:18.829Z,100313.19
2019-06-10T07:11:54.395Z,100318.17
2019-06-10T07:14:34.087Z,100327.02
2019-06-10T07:17:06.278Z,100327.77
2019-06-10T07:19:42.094Z,100323.56
2019-06-10T07:22:16.461Z,100321.19
2019-06-10T07:24:52.816Z,100322.41
2019-06-10T07:27:26.293Z,100312.86
2019-06-10T07:30:00.373Z,100314.45
2019-06-10T07:32:37.336Z,100313.44
2019-06-10T07:35:12.840Z,100311.47
2019-06-10T07:37:46.267Z,100309.64
2019-06-10T07:40:22.171Z,100306.91
2019-06-10T07:42:55.462Z,100293.84
2019-06-10T07:45:28.827Z,100287.25
2019-06-10T07:48:02.969Z,100278.81
2019-06-10T07:50:37.801Z,100282.70
2019-06-10T07:53:12.832Z,100276.59
2019-06-10T07:55:46.852Z,100267.83
2019-06-10T07:58:22.302Z,100262.48
2019-06-10T08:00:54.931Z,100264.19
2019-06-10T08:03:28.940Z,100261.73
2019-06-10T08:06:03.269Z,100265.90
2019-06-10T08:08:37.112Z,100263.01
2019-06-10T08:11:13.408Z,100254.63
2019-06-10T08:13:48.063Z,100255.09
2019-06-10T08:16:23.643Z,100256.64
2019-06-10T08:19:22.087Z,100252.12
2019-06-10T08:21:33.855Z,100241.80
2019-06-10T08:24:07.934Z,100235.62
2019-06-10T08:26:43.983Z,100230.52
2019-06-10T08:29:17.251Z,100236.61
2019-06-10T08:31:53.261Z,100232.62
2019-06-10T08:34:26.882Z,100222.47
2019-06-10T08:37:04.245Z,100216.85
2019-06-10T08:39:36.397Z,100209.59
2019-06-10T08:42:12.387Z,100205.08
2019-06-10T08:44:48.437Z,100216.09
2019-06-10T08:47:22.928Z,100213.17
2019-06-10T08:49:56.941Z,100210.41
2019-06-10T08:52:48.709Z,100214.74
2019-06-10T08:55:06.970Z,100217.67
2019-06-10T08:57:45.255Z,100209.91
2019-06-10T09:00:18.753Z,100211.43
2019-06-10T09:02:53.900Z,100213.69
2019-06-10T09:05:28.213Z,100209.13
2019-06-10T09:08:03.318Z,100205.14
2019-06-10T09:10:39.499Z,100196.89
2019-06-10T09:13:13.505Z,100197.74
2019-06-10T09:16:07.147Z,100198.84
2019-06-10T09:18:23.438Z,100195.50
2019-06-10T09:20:57.498Z,100195.31
2019-06-10T09:23:33.142Z,100199.59
2019-06-10T09:26:07.366Z,100204.46
2019-06-10T09:28:45.072Z,100202.86
2019-06-10T09:31:16.159Z,100193.37
2019-06-10T09:33:54.377Z,100192.39
2019-06-10T09:36:26.122Z,100189.36
2019-06-10T09:39:00.209Z,100191.60
2019-06-10T09:41:41.064Z,100183.89
2019-06-10T09:44:12.693Z,100184.61
2019-06-10T09:46:50.542Z,100176.61
2019-06-10T09:49:26.128Z,100174.22
2019-06-10T09:52:03.127Z,100181.45
2019-06-10T09:54:57.094Z,100175.27
2019-06-10T09:57:32.197Z,100165.85
2019-06-10T10:00:12.557Z,100152.61
2019-06-10T10:02:50.450Z,100151.98
2019-06-10T10:05:23.381Z,100144.69
2019-06-10T10:07:57.784Z,100143.31
2019-06-10T10:10:37.281Z,100139.38
2019-06-10T10:13:13.052Z,100140.66
2019-06-10T10:15:48.134Z,100140.57
2019-06-10T10:18:23.598Z,100135.23
2019-06-10T10:21:00.229Z,100122.45
2019-06-10T10:23:50.337Z,100118.91
2019-06-10T10:26:09.427Z,100117.31
2019-06-10T10:28:44.673Z,100122.33
2019-06-10T10:31:19.510Z,100121.30
2019-06-10T10:33:53.765Z,100116.62
2019-06-10T10:36:27.819Z,100113.45
2019-06-10T10:39:02.433Z,100113.09
2019-06-10T10:41:36.943Z,100107.36
2019-06-10T10:44:31.982Z,100094.80
2019-06-10T10:47:06.171Z,100089.86
2019-06-10T10:49:40.668Z,100088.44
2019-06-10T10:52:14.793Z,100086.39
2019-06-10T10:54:49.424Z,100082.25
2019-06-10T10:57:23.745Z,100076.80
2019-06-10T10:59:57.816Z,100068.70
2019-06-10T11:02:32.248Z,100065.56
2019-06-10T11:05:09.241Z,100064.80
2019-06-10T11:07:44.488Z,100063.05
2019-06-10T11:10:19.419Z,100050.70
2019-06-10T11:12:55.376Z,100047.00
2019-06-10T11:15:32.793Z,100049.55
2019-06-10T11:18:07.717Z,100041.29
2019-06-10T11:20:41.857Z,100047.47
2019-06-10T11:23:16.111Z,100048.31
2019-06-10T11:25:53.289Z,100058.88
2019-06-10T11:28:26.185Z,100057.11
2019-06-10T11:31:00.438Z,100050.37
2019-06-10T11:33:34.951Z,100052.06
2019-06-10T11:36:09.036Z,100028.09
2019-06-10T11:38:43.039Z,100024.75
2019-06-10T11:41:16.374Z,100020.00
2019-06-10T11:43:53.705Z,100014.73
2019-06-10T11:46:26.841Z,100016.16
2019-06-10T11:49:03.932Z,100014.56
2019-06-10T11:51:37.361Z,100010.75
2019-06-10T11:54:12.835Z,100015.81
2019-06-10T11:56:47.728Z,99999.72
2019-06-10T11:59:21.998Z,99990.12
2019-06-10T12:01:59.721Z,99986.86
2019-06-10T12:04:31.870Z,99984.91
2019-06-10T12:07:05.853Z,99978.97
2019-06-10T12:09:39.226Z,99973.09
2019-06-10T12:12:13.625Z,99962.72
2019-06-10T12:14:49.299Z,99973.83
2019-06-10T12:17:40.477Z,99982.33
2019-06-10T12:20:02.583Z,99963.83
2019-06-10T12:22:35.215Z,99959.09
2019-06-10T12:25:30.372Z,99963.83
2019-06-10T12:27:45.887Z,99957.08
2019-06-10T12:30:22.238Z,99963.83
2019-06-10T12:32:59.056Z,99963.45
2019-06-10T12:35:33.319Z,99960.09
2019-06-10T12:38:07.339Z,99954.38
2019-06-10T12:40:42.763Z,99957.14
2019-06-10T12:43:16.028Z,99955.66
2019-06-10T12:45:49.275Z,99958.05
2019-06-10T12:48:23.321Z,99964.86
2019-06-10T12:50:58.945Z,99956.22
2019-06-10T12:53:33.683Z,99952.08
2019-06-10T12:56:10.976Z,99949.70
2019-06-10T12:58:43.941Z,99942.59
2019-06-10T13:01:18.025Z,99948.69
2019-06-10T13:03:53.614Z,99942.97
2019-06-10T13:06:28.279Z,99939.66
2019-06-10T13:09:06.348Z,99927.22
2019-06-10T13:11:43.148Z,99916.75
2019-06-10T13:14:18.380Z,99916.16
2019-06-10T13:16:52.749Z,99914.63
2019-06-10T13:19:27.099Z,99905.84
2019-06-10T13:22:04.535Z,99896.56
2019-06-10T13:24:37.083Z,99898.75
2019-06-10T13:27:10.888Z,99895.55
2019-06-10T13:29:45.429Z,99896.77
2019-06-10T13:32:19.663Z,99893.53
2019-06-10T13:34:53.571Z,99888.79
2019-06-10T13:37:27.856Z,99880.20
2019-06-10T13:40:04.579Z,99879.53
2019-06-10T13:42:37.953Z,99877.88
2019-06-10T13:45:12.905Z,99876.70
2019-06-10T13:47:47.319Z,99867.55
2019-06-10T13:50:22.099Z,99861.27
2019-06-10T13:52:58.696Z,99863.95
2019-06-10T13:55:32.978Z,99878.13
2019-06-10T13:58:09.600Z,99875.40
2019-06-10T14:00:46.785Z,99862.23
2019-06-10T14:03:18.847Z,99870.00
2019-06-10T14:05:58.463Z,99878.47
2019-06-10T14:08:29.171Z,99867.34
2019-06-10T14:11:07.294Z,99864.64
2019-06-10T14:13:40.245Z,99857.80
2019-06-10T14:16:15.179Z,99861.02
2019-06-10T14:18:49.268Z,99861.34
2019-06-10T14:21:23.582Z,99860.65
2019-06-10T14:23:57.903Z,99856.73
2019-06-10T14:26:40.592Z,99864.55
2019-06-10T14:29:09.240Z,99869.27
2019-06-10T14:31:44.999Z,99872.15
2019-06-10T14:34:22.310Z,99872.66
2019-06-10T14:36:55.158Z,99870.45
2019-06-10T14:39:28.476Z,99864.89
2019-06-10T14:42:03.801Z,99859.50
2019-06-10T14:44:38.419Z,99861.70
2019-06-10T14:47:13.959Z,99853.06
2019-06-10T14:49:48.405Z,99845.49
2019-06-10T14:52:22.772Z,99840.75
2019-06-10T14:54:57.673Z,99838.72
2019-06-10T14:57:33.454Z,99837.70
2019-06-10T15:00:09.804Z,99831.78
2019-06-10T15:02:44.047Z,99840.41
2019-06-10T15:05:17.858Z,99828.41
2019-06-10T15:07:52.834Z,99826.55
2019-06-10T15:10:26.913Z,99818.08
2019-06-10T15:13:02.128Z,99810.33
2019-06-10T15:15:34.934Z,99807.98
2019-06-10T15:18:09.325Z,99805.61
2019-06-10T15:20:43.583Z,99797.64
2019-06-10T15:23:19.127Z,99797.16
2019-06-10T15:25:56.708Z,99789.05
2019-06-10T15:28:28.764Z,99784.63
2019-06-10T15:31:03.122Z,99779.91
2019-06-10T15:33:37.211Z,99777.70
2019-06-10T15:36:11.238Z,99777.20
2019-06-10T15:38:45.230Z,99776.52
2019-06-10T15:41:20.318Z,99774.00
2019-06-10T15:43:54.123Z,99769.76
2019-06-10T15:46:28.065Z,99763.64
2019-06-10T15:49:02.381Z,99757.58
2019-06-10T15:51:35.814Z,99754.20
2019-06-10T15:54:10.680Z,99753.52
2019-06-10T15:56:52.696Z,99751.82
2019-06-10T15:59:21.432Z,99749.80
2019-06-10T16:01:55.355Z,99737.14
2019-06-10T16:04:29.991Z,99733.25
2019-06-10T16:07:04.999Z,99725.14
2019-06-10T16:09:39.108Z,99730.19
2019-06-10T16:12:15.003Z,99733.92
2019-06-10T16:14:48.897Z,99733.23
2019-06-10T16:17:23.329Z,99727.45
2019-06-10T16:19:57.545Z,99727.12
2019-06-10T16:22:32.413Z,99722.02
2019-06-10T16:25:07.617Z,99713.88
2019-06-10T16:27:49.553Z,99723.97
2019-06-10T16:30:18.215Z,99712.48
2019-06-10T16:32:53.101Z,99706.08
2019-06-10T16:35:27.223Z,99706.59
2019-06-10T16:38:01.117Z,99708.41
2019-06-10T16:40:34.238Z,99714.14
2019-06-10T16:43:08.183Z,99710.72
2019-06-10T16:45:43.274Z,99722.66
2019-06-10T16:48:17.128Z,99717.70
2019-06-10T16:50:54.016Z,99718.63
2019-06-10T16:53:30.536Z,99716.20
2019-06-10T16:56:03.339Z,99717.63
2019-06-10T16:58:37.639Z,99712.51
2019-06-10T17:01:12.406Z,99726.73
2019-06-10T17:03:46.632Z,99723.98
2019-06-10T17:06:22.034Z,99721.20
2019-06-10T17:08:55.391Z,99716.36
2019-06-10T17:11:29.329Z,99710.52
2019-06-10T17:14:04.905Z,99708.06
2019-06-10T17:16:40.700Z,99696.87
2019-06-10T17:19:14.725Z,99700.48
2019-06-10T17:21:47.955Z,99694.68
2019-06-10T17:24:25.230Z,99690.56
2019-06-10T17:26:58.069Z,99702.91
2019-06-10T17:29:33.469Z,99691.83
2019-06-10T17:32:07.523Z,99690.17
2019-06-10T17:34:42.331Z,99688.67
2019-06-10T17:37:16.533Z,99686.03
2019-06-10T17:39:52.910Z,99688.35
2019-06-10T17:42:30.593Z,99693.63
2019-06-10T17:45:02.659Z,99693.77
2019-06-10T17:47:37.043Z,99687.58
2019-06-10T17:50:12.651Z,99686.45
2019-06-10T17:52:46.976Z,99679.27
2019-06-10T17:55:25.716Z,99684.16
2019-06-10T17:57:57.415Z,99676.98
2019-06-10T18:00:31.678Z,99689.34
2019-06-10T18:03:06.375Z,99701.30
2019-06-10T18:05:42.524Z,99700.46
2019-06-10T18:08:17.874Z,99690.27
2019-06-10T18:10:53.626Z,99685.84
2019-06-10T18:13:28.091Z,99688.81
2019-06-10T18:16:02.888Z,99699.55
2019-06-10T18:18:37.407Z,99702.53
2019-06-10T18:21:12.735Z,99696.73
2019-06-10T18:23:46.888Z,99687.38
2019-06-10T18:26:20.203Z,99688.53
2019-06-10T18:29:04.537Z,99705.52
2019-06-10T18:31:32.405Z,99718.87
2019-06-10T18:34:05.590Z,99716.82
2019-06-10T18:36:42.568Z,99711.09
2019-06-10T18:39:15.518Z,99719.86
2019-06-10T18:41:48.805Z,99722.55
2019-06-10T18:44:26.322Z,99726.83
2019-06-10T18:46:58.844Z,99730.05
2019-06-10T18:49:33.998Z,99738.75
2019-06-10T18:52:07.863Z,99733.29
2019-06-10T18:54:43.338Z,99739.14
2019-06-10T18:57:16.635Z,99733.55
2019-06-10T18:59:52.080Z,99733.00
2019-06-10T19:02:24.801Z,99728.03
2019-06-10T19:04:58.808Z,99736.63
2019-06-10T19:07:34.916Z,99737.15
2019-06-10T19:10:10.067Z,99727.31
2019-06-10T19:12:44.368Z,99717.83
2019-06-10T19:15:18.674Z,99716.03
2019-06-10T19:17:53.636Z,99720.11
2019-06-10T19:20:27.952Z,99712.27
2019-06-10T19:23:02.604Z,99694.64
2019-06-10T19:25:38.824Z,99679.97
2019-06-10T19:28:12.904Z,99674.50
2019-06-10T19:30:46.218Z,99664.05
2019-06-10T19:33:20.273Z,99670.57
2019-06-10T19:35:53.544Z,99688.16
2019-06-10T19:38:27.945Z,99703.77
2019-06-10T19:41:02.894Z,99689.32
2019-06-10T19:43:39.135Z,99665.48
2019-06-10T19:46:12.940Z,99656.41
2019-06-10T19:48:56.977Z,99671.16
2019-06-10T19:51:23.395Z,99669.91
2019-06-10T19:53:58.542Z,99653.54
2019-06-10T19:56:33.054Z,99662.92
2019-06-10T19:59:07.316Z,99692.66
2019-06-10T20:01:45.915Z,99835.35
2019-06-10T20:04:25.461Z,99919.64
2019-06-10T20:07:06.366Z,99937.03
2019-06-10T20:09:46.139Z,99987.95
2019-06-10T20:12:19.797Z,100010.55
2019-06-10T20:14:57.462Z,99969.67
2019-06-10T20:17:35.514Z,99906.30
2019-06-10T20:20:22.627Z,99838.25
2019-06-10T20:22:57.640Z,99839.20
2019-06-10T20:25:32.905Z,99833.09
2019-06-10T20:28:07.260Z,99847.66
2019-06-10T20:30:43.804Z,99854.05
2019-06-10T20:33:18.488Z,99856.34
2019-06-10T20:35:52.456Z,99859.72
2019-06-10T20:38:26.396Z,99845.29
2019-06-10T20:41:02.417Z,99826.09
2019-06-10T20:43:35.433Z,99824.23
2019-06-10T20:46:08.490Z,99832.31
2019-06-10T20:48:45.481Z,99842.13
2019-06-10T20:51:17.961Z,99829.16
2019-06-10T20:53:53.327Z,99816.41
2019-06-10T20:56:27.343Z,99808.77
2019-06-10T20:59:03.029Z,99792.02
2019-06-10T21:01:36.932Z,99767.84
2019-06-10T21:04:13.030Z,99736.05
2019-06-10T21:06:49.550Z,99722.59
2019-06-10T21:09:25.755Z,99715.70
2019-06-10T21:12:01.941Z,99721.89
2019-06-10T21:14:35.285Z,99724.34
2019-06-10T21:17:09.132Z,99723.48
2019-06-10T21:19:44.926Z,99716.58
2019-06-10T21:22:18.805Z,99722.89
2019-06-10T21:24:53.608Z,99745.01
2019-06-10T21:27:27.777Z,99760.54
2019-06-10T21:30:03.130Z,99747.67
2019-06-10T21:32:37.448Z,99761.02
2019-06-10T21:35:12.094Z,99781.04
2019-06-10T21:37:47.162Z,99789.05
2019-06-10T21:40:21.715Z,99791.23
2019-06-10T21:42:55.645Z,99801.43
2019-06-10T21:45:29.470Z,99803.61
2019-06-10T21:48:03.306Z,99753.69
2019-06-10T21:50:37.134Z,99729.38
2019-06-10T21:53:13.028Z,99740.01
2019-06-10T21:55:46.705Z,99717.70
2019-06-10T21:58:22.553Z,99748.12
2019-06-10T22:01:09.816Z,99773.09
2019-06-10T22:03:32.334Z,99818.31
2019-06-10T22:06:05.698Z,99799.75
2019-06-10T22:08:42.311Z,99798.83
2019-06-10T22:11:15.343Z,99767.66
2019-06-10T22:13:50.790Z,99773.09
2019-06-10T22:16:24.869Z,99796.55
2019-06-10T22:18:58.728Z,99781.50
2019-06-10T22:21:32.749Z,99776.22
2019-06-10T22:24:06.029Z,99792.83
2019-06-10T22:26:39.770Z,99776.94
2019-06-10T22:29:13.619Z,99762.76
2019-06-10T22:31:47.420Z,99745.59
2019-06-10T22:34:22.878Z,99740.84
2019-06-10T22:36:57.625Z,99724.48
2019-06-10T22:39:32.552Z,99754.17
2019-06-10T22:42:06.563Z,99761.09
2019-06-10T22:44:42.359Z,99726.77
2019-06-10T22:47:16.107Z,99717.70
2019-06-10T22:49:50.218Z,99748.19
2019-06-10T22:52:23.999Z,99735.08
2019-06-10T22:54:58.694Z,99737.73
2019-06-10T22:57:32.929Z,99745.98
2019-06-10T23:00:09.549Z,99738.57
2019-06-10T23:02:43.885Z,99732.66
2019-06-10T23:05:18.200Z,99720.93
2019-06-10T23:07:53.239Z,99719.12
2019-06-10T23:10:27.616Z,99705.91
2019-06-10T23:13:03.069Z,99698.28
2019-06-10T23:15:37.118Z,99701.53
2019-06-10T23:18:12.809Z,99689.17
2019-06-10T23:20:46.489Z,99671.38
2019-06-10T23:23:23.106Z,99686.88
2019-06-10T23:25:56.063Z,99680.33
2019-06-10T23:28:29.889Z,99678.84
2019-06-10T23:31:05.297Z,99684.64
2019-06-10T23:33:39.529Z,99687.89
2019-06-10T23:36:13.638Z,99688.89
2019-06-10T23:38:46.874Z,99683.77
2019-06-10T23:41:22.367Z,99689.31
2019-06-10T23:43:57.150Z,99695.80
2019-06-10T23:46:31.983Z,99696.05
2019-06-10T23:49:06.065Z,99696.05
2019-06-10T23:51:42.181Z,99699.67
2019-06-10T23:54:15.523Z,99697.01
2019-06-10T23:56:49.355Z,99710.91
2019-06-10T23:59:23.180Z,99726.52
